Ana Sayfa
METAR-TAF:

METAR-TAF

Havaalanları :

Pottstown Limerick Airport

Pottstown, Pensilvanya, Amerika Birleşik Devletleri

Enlem: 40-14-18N, Boylam: 075-33-26W, yükseklik: 89 m

Güncel hava durumu gözlemi

Rapor saat 20:33 UTC de 7 dakika önce yapıldı.
Rüzgar değişken yönden 4 kt
Sıcaklık -5°C
Nem 93%
Basınç 1022 hPa
Görüş mesafesi: 6.4 km
1000 ft yükseklikte az bulutlu
4900 ft yükseklikte parçalı bulutlu
5500 ft yükseklikte çok bulutlu
(Hafif) Donan, yağmur, Pus

METAR: KPTW 182033Z AUTO VRB04KT 4SM -FZRA BR FEW010 SCT049 OVC055 M05/M06 A3018 RMK AO2 UPB07E27FZRAB27SNE07 P0001 I1001 T10501061

Saat: 15:40 (20:40 UTC)


TAF: eksik

4.000'den fazla havaalanı için hava durumu gözlemleri ve tahminleri (METAR ve TAF raporları).

Kullanılabilir istasyonlar harita üzerinde sarı ve kırmızı noktalarla gösterilir.

İstasyonun adını görmek için fareyi noktanın üzerinde gezdirin.

Sonrasında hava gözlem ve tahminlerini görmek için tıklayın.

Haritayı değiştirmek için: yaklaştırmak için siyah artı işaretli yeşil düğmeye ve uzaklaştırmak için de eksi işaretli düğmeye hızla tıklayın; bitişik haritalar için yeşil okları kullanın.


METAR-TAF: